Time;durP1;ratioP1;P1;durP2;ratioP2;P2;SDS_P1;SDS_P2;PMS_P1;PMS_P2;Temp;Humidity;BMP_temperature;BMP_pressure;BME280_temperature;BME280_humidity;BME280_pressure;Samples;Min_cycle;Max_cycle;Signal;HPM_P1;HPM_P2
2023/07/04 00:02:28;;;;;;;;;;;;;;;24.19;45.83;100286.88;2307015;75;52592;-75
2023/07/04 00:05:30;;;;;;;;;;;;;;;24.20;45.70;100291.22;2341548;76;51549;-74
2023/07/04 00:08:33;;;;;;;;;;;;;;;24.19;45.82;100280.12;2306705;76;51441;-75
2023/07/04 00:11:34;;;;;;;;;;;;;;;24.19;45.80;100274.71;2341855;76;22294;-75
2023/07/04 00:14:36;;;;;;;;;;;;;;;24.20;45.79;100269.59;2281780;76;52491;-75
2023/07/04 00:17:38;;;;;;;;;;;;;;;24.19;45.75;100276.06;2341427;76;51368;-74
2023/07/04 00:20:40;;;;;;;;;;;;;;;24.18;45.75;100265.78;2313120;75;49935;-75
2023/07/04 00:23:45;;;;;;;;;;;;;;;24.18;45.91;100271.72;2339722;75;50628;-75
2023/07/04 00:26:46;;;;;;;;;;;;;;;24.16;46.08;100272.47;2341696;76;23086;-74
2023/07/04 00:29:47;;;;;;;;;;;;;;;24.15;46.16;100269.45;2341559;76;50717;-74
2023/07/04 00:32:49;;;;;;;;;;;;;;;24.15;46.13;100269.45;2341513;75;51525;-74
2023/07/04 00:35:54;;;;;;;;;;;;;;;24.15;46.05;100268.10;2341572;76;51470;-75
2023/07/04 00:38:56;;;;;;;;;;;;;;;24.16;46.06;100269.23;2341288;76;22349;-74
2023/07/04 00:42:02;;;;;;;;;;;;;;;24.16;46.05;100269.77;2307280;76;51500;-74
2023/07/04 00:45:01;;;;;;;;;;;;;;;24.17;46.11;100268.70;2341226;75;22349;-75
2023/07/04 00:48:03;;;;;;;;;;;;;;;24.15;46.10;100261.34;2306984;76;51580;-75
2023/07/04 00:51:05;;;;;;;;;;;;;;;24.15;46.13;100259.98;2348449;75;50287;-75
2023/07/04 00:54:06;;;;;;;;;;;;;;;24.16;46.09;100265.72;2311724;76;50256;-75
2023/07/04 00:57:08;;;;;;;;;;;;;;;24.15;46.17;100259.48;2341503;76;50218;-75
2023/07/04 01:00:16;;;;;;;;;;;;;;;24.15;46.08;100264.05;2341761;76;50308;-74
2023/07/04 01:03:20;;;;;;;;;;;;;;;24.15;46.10;100265.39;2341949;76;22433;-75
2023/07/04 01:06:25;;;;;;;;;;;;;;;24.13;46.24;100262.94;2341748;75;22290;-74
2023/07/04 01:09:26;;;;;;;;;;;;;;;24.15;46.16;100264.05;2341687;76;51480;-74
2023/07/04 01:12:29;;;;;;;;;;;;;;;24.13;46.33;100269.16;2341660;76;49883;-74
2023/07/04 01:15:31;;;;;;;;;;;;;;;24.12;46.43;100264.83;2301540;76;52588;-74
2023/07/04 01:18:32;;;;;;;;;;;;;;;24.12;46.32;100267.53;2300336;76;50794;-75
2023/07/04 01:21:34;;;;;;;;;;;;;;;24.12;46.21;100256.72;2327047;76;51477;-75
2023/07/04 01:24:37;;;;;;;;;;;;;;;24.12;46.23;100259.42;2297712;76;50736;-75
2023/07/04 01:27:40;;;;;;;;;;;;;;;24.13;46.22;100254.83;2262883;77;51779;-75
2023/07/04 01:30:44;;;;;;;;;;;;;;;24.12;46.23;100258.07;2292714;76;51514;-75
2023/07/04 01:33:47;;;;;;;;;;;;;;;24.13;46.23;100257.00;2292737;77;51421;-72
2023/07/04 01:36:49;;;;;;;;;;;;;;;24.10;46.47;100252.06;2292560;76;22347;-74
2023/07/04 01:39:50;;;;;;;;;;;;;;;24.10;46.50;100260.70;2240038;77;49633;-74
2023/07/04 01:42:53;;;;;;;;;;;;;;;24.06;46.64;100257.61;2264326;77;49972;-73
2023/07/04 01:45:54;;;;;;;;;;;;;;;24.06;46.69;100253.56;2292783;76;51652;-73
2023/07/04 01:48:56;;;;;;;;;;;;;;;24.08;46.51;100250.11;2263874;77;53559;-74
2023/07/04 01:51:58;;;;;;;;;;;;;;;24.08;46.61;100258.22;2278367;76;52362;-73
2023/07/04 01:54:59;;;;;;;;;;;;;;;24.08;46.54;100247.41;2264496;77;51576;-72
2023/07/04 01:58:01;;;;;;;;;;;;;;;24.12;46.53;100251.81;2292540;77;50362;-73
2023/07/04 02:01:03;;;;;;;;;;;;;;;24.09;46.60;100253.09;2292688;77;50661;-74
2023/07/04 02:04:04;;;;;;;;;;;;;;;24.06;46.72;100260.31;2264088;77;50955;-73
2023/07/04 02:07:06;;;;;;;;;;;;;;;24.09;46.60;100261.20;2263935;77;50520;-73
2023/07/04 02:10:08;;;;;;;;;;;;;;;24.12;46.64;100263.48;2264229;77;51634;-73
2023/07/04 02:13:09;;;;;;;;;;;;;;;24.12;46.58;100262.12;2292705;77;51566;-74
2023/07/04 02:16:11;;;;;;;;;;;;;;;24.10;46.49;100261.52;2287669;76;54054;-73
2023/07/04 02:19:12;;;;;;;;;;;;;;;24.12;46.58;100254.02;2294413;76;50224;-73
2023/07/04 02:22:14;;;;;;;;;;;;;;;24.13;46.56;100253.48;2303447;75;50081;-73
2023/07/04 02:25:16;;;;;;;;;;;;;;;24.11;46.57;100259.64;2364125;75;50205;-74
2023/07/04 02:28:17;;;;;;;;;;;;;;;24.12;46.58;100257.22;2331458;75;49568;-74
2023/07/04 02:31:19;;;;;;;;;;;;;;;24.10;46.62;100258.00;2364305;75;50269;-74
2023/07/04 02:34:20;;;;;;;;;;;;;;;24.12;46.64;100262.12;2364399;75;50298;-74
2023/07/04 02:37:22;;;;;;;;;;;;;;;24.13;46.51;100257.00;2363988;75;50254;-74
2023/07/04 02:40:24;;;;;;;;;;;;;;;24.12;46.55;100258.07;2306036;75;51384;-74
2023/07/04 02:43:25;;;;;;;;;;;;;;;24.13;46.43;100255.66;2335590;75;51566;-73
2023/07/04 02:46:27;;;;;;;;;;;;;;;24.12;46.57;100250.47;2364589;75;52071;-74
2023/07/04 02:49:29;;;;;;;;;;;;;;;24.11;46.60;100263.16;2332658;75;50110;-74
2023/07/04 02:52:30;;;;;;;;;;;;;;;24.12;46.61;100261.28;2351116;75;50289;-73
2023/07/04 02:55:32;;;;;;;;;;;;;;;24.11;46.59;100260.45;2365814;75;50269;-74
2023/07/04 02:58:33;;;;;;;;;;;;;;;24.12;46.53;100257.22;2361671;75;50667;-73
2023/07/04 03:01:35;;;;;;;;;;;;;;;24.09;46.93;100259.03;2367249;75;51407;-74
2023/07/04 03:04:36;;;;;;;;;;;;;;;24.11;46.90;100261.81;2334306;75;52343;-73
2023/07/04 03:07:38;;;;;;;;;;;;;;;24.11;46.88;100261.81;2333478;75;51367;-73
2023/07/04 03:10:40;;;;;;;;;;;;;;;24.10;46.73;100260.70;2370438;75;50705;-74
2023/07/04 03:13:42;;;;;;;;;;;;;;;24.12;46.84;100258.07;2302068;76;50740;-73
2023/07/04 03:16:43;;;;;;;;;;;;;;;24.12;46.84;100262.12;2266492;77;51467;-74
2023/07/04 03:19:45;;;;;;;;;;;;;;;24.11;46.74;100264.51;2263137;76;52861;-73
2023/07/04 03:22:46;;;;;;;;;;;;;;;24.09;46.78;100270.66;2298527;76;50656;-74
2023/07/04 03:25:48;;;;;;;;;;;;;;;24.08;46.79;100269.56;2327025;76;51527;-74
2023/07/04 03:28:49;;;;;;;;;;;;;;;24.09;46.67;100272.02;2326851;76;51515;-74
2023/07/04 03:31:51;;;;;;;;;;;;;;;24.08;46.67;100270.91;2272257;76;52779;-73
2023/07/04 03:34:53;;;;;;;;;;;;;;;24.08;46.57;100270.38;2326986;76;50724;-73
2023/07/04 03:37:56;;;;;;;;;;;;;;;24.09;46.49;100269.84;2297460;76;50247;-73
2023/07/04 03:40:58;;;;;;;;;;;;;;;24.10;46.33;100283.68;2298265;76;51560;-73
2023/07/04 03:44:00;;;;;;;;;;;;;;;24.10;46.35;100284.50;2272488;76;49698;-73
2023/07/04 03:47:02;;;;;;;;;;;;;;;24.10;46.13;100286.38;2326843;76;51515;-74
2023/07/04 03:50:03;;;;;;;;;;;;;;;24.09;46.09;100289.59;2321793;76;50276;-74
2023/07/04 03:53:05;;;;;;;;;;;;;;;24.09;46.08;100288.77;2316656;76;51327;-74
2023/07/04 03:56:07;;;;;;;;;;;;;;;24.10;46.13;100288.55;2276692;77;51475;-73
2023/07/04 03:59:08;;;;;;;;;;;;;;;24.11;46.14;100291.54;2276688;77;51572;-73
2023/07/04 04:02:10;;;;;;;;;;;;;;;24.12;46.16;100293.71;2293670;77;51503;-74
2023/07/04 04:05:12;;;;;;;;;;;;;;;24.11;46.16;100294.25;2276623;76;51495;-75
2023/07/04 04:08:13;;;;;;;;;;;;;;;24.12;46.06;100297.27;2276405;77;50994;-75
2023/07/04 04:11:15;;;;;;;;;;;;;;;24.12;46.06;100305.37;2293671;76;51438;-74
2023/07/04 04:14:16;;;;;;;;;;;;;;;24.11;45.98;100307.76;2293559;76;51433;-74
2023/07/04 04:17:18;;;;;;;;;;;;;;;24.12;46.00;100313.48;2332777;76;51402;-75
2023/07/04 04:20:20;;;;;;;;;;;;;;;24.13;46.08;100314.30;2330299;74;51536;-74
2023/07/04 04:23:22;;;;;;;;;;;;;;;24.13;46.08;100322.41;2304144;76;51433;-75
2023/07/04 04:26:24;;;;;;;;;;;;;;;24.12;46.05;100329.70;2333552;75;50785;-74
2023/07/04 04:29:26;;;;;;;;;;;;;;;24.13;46.07;100328.64;2333768;76;50146;-74
2023/07/04 04:32:27;;;;;;;;;;;;;;;24.13;46.06;100339.45;2304290;76;52413;-73
2023/07/04 04:35:30;;;;;;;;;;;;;;;24.12;46.07;100336.46;2304460;76;50337;-74
2023/07/04 04:38:31;;;;;;;;;;;;;;;24.12;46.05;100332.91;2333546;75;51554;-74
2023/07/04 04:41:33;;;;;;;;;;;;;;;24.15;46.03;100339.73;2304627;76;51508;-74
2023/07/04 04:44:35;;;;;;;;;;;;;;;24.15;46.04;100345.14;2304379;76;51655;-75
2023/07/04 04:47:36;;;;;;;;;;;;;;;24.13;46.07;100344.86;2333775;76;50278;-77
2023/07/04 04:50:43;;;;;;;;;;;;;;;24.09;46.33;100349.05;2323544;73;50669;-77
2023/07/04 04:53:42;;;;;;;;;;;;;;;24.12;46.44;100353.18;2351423;75;23268;-76
2023/07/04 04:56:48;;;;;;;;;;;;;;;24.12;46.44;100354.03;2323418;76;52542;-76
2023/07/04 04:59:51;;;;;;;;;;;;;;;24.16;46.33;100362.50;2341092;75;23220;-74
2023/07/04 05:02:50;;;;;;;;;;;;;;;24.18;46.25;100357.70;2402256;73;22315;-76
2023/07/04 05:05:51;;;;;;;;;;;;;;;24.26;46.58;100366.02;2357121;73;52460;-78
2023/07/04 05:08:53;;;;;;;;;;;;;;;24.35;46.37;100368.69;2357514;73;52856;-76
2023/07/04 05:11:54;;;;;;;;;;;;;;;24.41;46.18;100370.50;2337171;75;50661;-75
2023/07/04 05:14:56;;;;;;;;;;;;;;;24.43;46.17;100375.67;2308200;76;53360;-77
2023/07/04 05:17:58;;;;;;;;;;;;;;;24.41;46.12;100373.73;2413742;73;51396;-77
2023/07/04 05:21:00;;;;;;;;;;;;;;;24.38;45.93;100375.02;2388949;73;51488;-77
2023/07/04 05:24:01;;;;;;;;;;;;;;;24.37;44.67;100381.47;2321614;76;50896;-77
2023/07/04 05:27:03;;;;;;;;;;;;;;;24.36;45.12;100379.01;2333678;76;51451;-76
2023/07/04 05:30:06;;;;;;;;;;;;;;;24.33;45.20;100381.64;2363817;73;50744;-76
2023/07/04 05:33:07;;;;;;;;;;;;;;;24.47;44.29;100387.72;2316930;75;52713;-76
2023/07/04 05:36:10;;;;;;;;;;;;;;;24.46;44.49;100384.20;2343970;75;50814;-76
2023/07/04 05:39:12;;;;;;;;;;;;;;;24.50;44.57;100402.95;2374528;75;50808;-77
2023/07/04 05:42:13;;;;;;;;;;;;;;;24.60;44.23;100390.24;2374745;75;50256;-76
2023/07/04 05:45:15;;;;;;;;;;;;;;;24.68;43.93;100398.56;2317789;75;51146;-77
2023/07/04 05:48:16;;;;;;;;;;;;;;;24.71;43.56;100408.41;2344054;75;50748;-77
2023/07/04 05:51:18;;;;;;;;;;;;;;;24.70;43.27;100406.75;2363778;73;50650;-77
2023/07/04 05:54:20;;;;;;;;;;;;;;;24.74;43.00;100407.95;2328733;75;50624;-78
2023/07/04 05:57:21;;;;;;;;;;;;;;;24.81;42.42;100430.84;2315621;75;52319;-77
2023/07/04 06:00:23;;;;;;;;;;;;;;;24.69;42.47;100425.40;2342878;75;52194;-80
2023/07/04 06:03:26;;;;;;;;;;;;;;;24.72;42.44;100424.12;2342243;75;50270;-78
2023/07/04 06:06:29;;;;;;;;;;;;;;;24.75;42.63;100419.06;2372465;75;50691;-76
2023/07/04 06:09:31;;;;;;;;;;;;;;;24.75;42.64;100417.70;2329306;75;52363;-76
2023/07/04 06:12:33;;;;;;;;;;;;;;;24.82;42.75;100401.39;2304640;76;50073;-77
2023/07/04 06:15:36;;;;;;;;;;;;;;;24.84;42.79;100395.22;2334286;76;51416;-77
2023/07/04 06:18:38;;;;;;;;;;;;;;;24.90;42.82;100426.77;2323267;76;51513;-77
2023/07/04 06:21:39;;;;;;;;;;;;;;;24.96;42.85;100425.83;2299446;75;52599;-77
2023/07/04 06:24:43;;;;;;;;;;;;;;;24.99;42.78;100419.13;2318882;76;50777;-77
2023/07/04 06:27:44;;;;;;;;;;;;;;;25.04;42.95;100429.27;2339153;74;51568;-77
2023/07/04 06:30:46;;;;;;;;;;;;;;;25.08;43.00;100433.17;2363740;75;51532;-76
2023/07/04 06:33:48;;;;;;;;;;;;;;;25.10;43.19;100444.08;2296311;76;52417;-76
2023/07/04 06:36:49;;;;;;;;;;;;;;;25.12;43.26;100450.59;2323044;76;51492;-76
2023/07/04 06:39:51;;;;;;;;;;;;;;;25.15;43.29;100458.25;2322917;76;50676;-77
2023/07/04 06:42:53;;;;;;;;;;;;;;;25.18;43.31;100457.84;2323739;76;51471;-76
2023/07/04 06:45:54;;;;;;;;;;;;;;;25.17;43.28;100452.11;2296625;76;52635;-77
2023/07/04 06:48:56;;;;;;;;;;;;;;;25.11;43.42;100455.19;2322777;76;51413;-77
2023/07/04 06:51:58;;;;;;;;;;;;;;;25.18;43.29;100453.24;2329418;75;50694;-76
2023/07/04 06:54:59;;;;;;;;;;;;;;;25.17;43.30;100456.17;2348744;75;51527;-77
2023/07/04 06:58:04;;;;;;;;;;;;;;;25.47;41.60;100464.78;2333878;75;52411;-78
2023/07/04 07:01:04;;;;;;;;;;;;;;;25.28;40.13;100466.22;2362298;75;22455;-78
2023/07/04 07:04:06;;;;;;;;;;;;;;;25.18;39.32;100468.67;2334189;75;51530;-76
2023/07/04 07:07:09;;;;;;;;;;;;;;;25.22;38.91;100473.08;2359934;74;50342;-76
2023/07/04 07:10:10;;;;;;;;;;;;;;;25.04;39.52;100476.11;2335366;75;51234;-77
2023/07/04 07:13:12;;;;;;;;;;;;;;;24.93;39.91;100493.97;2335743;75;50735;-76
2023/07/04 07:16:18;;;;;;;;;;;;;;;24.93;39.95;100488.55;2336036;75;51468;-76
2023/07/04 07:19:19;;;;;;;;;;;;;;;24.87;40.01;100485.42;2351937;73;52603;-76
2023/07/04 07:22:21;;;;;;;;;;;;;;;24.94;39.88;100491.55;2326522;75;51573;-76
2023/07/04 07:25:22;;;;;;;;;;;;;;;24.93;39.91;100498.02;2327595;76;51323;-76
2023/07/04 07:28:24;;;;;;;;;;;;;;;24.98;39.99;100502.23;2311065;76;50650;-76
2023/07/04 07:31:27;;;;;;;;;;;;;;;24.95;39.97;100495.10;2310891;76;50135;-76
2023/07/04 07:34:28;;;;;;;;;;;;;;;24.95;39.96;100497.27;2311055;76;51006;-76
2023/07/04 07:37:30;;;;;;;;;;;;;;;24.90;39.95;100499.84;2338046;76;52148;-76
2023/07/04 07:40:31;;;;;;;;;;;;;;;24.88;39.97;100501.95;2310929;76;51468;-76
2023/07/04 07:43:33;;;;;;;;;;;;;;;24.89;39.86;100503.62;2338412;76;51431;-76
2023/07/04 07:46:35;;;;;;;;;;;;;;;24.89;39.87;100504.97;2285434;76;51702;-76
2023/07/04 07:49:37;;;;;;;;;;;;;;;24.90;39.82;100489.02;2338513;76;50682;-75
2023/07/04 07:52:38;;;;;;;;;;;;;;;24.90;39.75;100499.02;2349431;75;51512;-77
2023/07/04 07:55:40;;;;;;;;;;;;;;;24.92;39.74;100500.95;2338397;76;50343;-76
2023/07/04 07:58:42;;;;;;;;;;;;;;;24.92;39.59;100492.83;2310708;76;52537;-76
2023/07/04 08:01:43;;;;;;;;;;;;;;;24.91;39.50;100506.89;2338495;76;50629;-76
2023/07/04 08:04:45;;;;;;;;;;;;;;;24.88;39.46;100500.59;2338345;75;50234;-76
2023/07/04 08:07:46;;;;;;;;;;;;;;;24.89;39.34;100503.62;2338143;75;50353;-76
2023/07/04 08:10:48;;;;;;;;;;;;;;;24.91;39.09;100500.66;2285441;75;51586;-76
2023/07/04 08:13:51;;;;;;;;;;;;;;;24.86;39.24;100505.94;2406549;73;51338;-76
2023/07/04 08:16:53;;;;;;;;;;;;;;;24.82;39.22;100515.05;2417217;73;52247;-76
2023/07/04 08:19:55;;;;;;;;;;;;;;;24.81;39.13;100517.97;2417407;73;51611;-76
2023/07/04 08:22:56;;;;;;;;;;;;;;;24.83;39.00;100507.22;2341080;75;51416;-76
2023/07/04 08:25:58;;;;;;;;;;;;;;;24.84;38.88;100512.95;2333961;75;50292;-77
2023/07/04 08:29:00;;;;;;;;;;;;;;;24.81;38.79;100503.91;2374321;75;50361;-78
2023/07/04 08:32:01;;;;;;;;;;;;;;;24.82;38.81;100512.88;2342621;75;50662;-77
2023/07/04 08:35:03;;;;;;;;;;;;;;;24.76;38.88;100509.17;2342528;75;51609;-77
2023/07/04 08:38:04;;;;;;;;;;;;;;;24.73;38.80;100512.34;2374244;75;50418;-76
2023/07/04 08:41:11;;;;;;;;;;;;;;;24.76;38.69;100511.87;2374754;74;50255;-77
2023/07/04 08:44:20;;;;;;;;;;;;;;;24.73;38.67;100497.46;2374595;73;51455;-76
2023/07/04 08:47:25;;;;;;;;;;;;;;;24.74;38.61;100507.25;2343606;75;51198;-76
2023/07/04 08:50:30;;;;;;;;;;;;;;;24.77;38.50;100527.91;2374813;73;22439;-77
2023/07/04 08:53:32;;;;;;;;;;;;;;;24.76;38.41;100517.30;2361174;75;50437;-77
2023/07/04 08:56:35;;;;;;;;;;;;;;;24.75;38.41;100521.06;2401455;73;50253;-77
2023/07/04 08:59:40;;;;;;;;;;;;;;;24.74;38.29;100514.02;2417818;73;50308;-78
2023/07/04 09:02:47;;;;;;;;;;;;;;;24.73;38.27;100515.05;2417585;73;50299;-78
2023/07/04 09:05:56;;;;;;;;;;;;;;;24.75;38.24;100512.95;2417765;73;50429;-78
2023/07/04 09:08:59;;;;;;;;;;;;;;;24.73;38.23;100524.52;2417318;73;50575;-78
2023/07/04 09:12:01;;;;;;;;;;;;;;;24.69;38.40;100514.69;2388695;73;51778;-78
2023/07/04 09:15:16;;;;;;;;;;;;;;;24.69;38.43;100526.05;2417783;73;51468;-78
2023/07/04 09:18:21;;;;;;;;;;;;;;;24.70;38.49;100522.27;2415213;73;51441;-78
2023/07/04 09:21:23;;;;;;;;;;;;;;;24.66;38.67;100528.67;2413276;73;50262;-78
2023/07/04 09:24:25;;;;;;;;;;;;;;;24.64;38.81;100528.60;2312305;75;52537;-78
2023/07/04 09:27:27;;;;;;;;;;;;;;;24.64;38.84;100530.78;2351930;75;49874;-78
2023/07/04 09:30:29;;;;;;;;;;;;;;;24.63;38.89;100531.81;2352009;75;51416;-77
2023/07/04 09:33:30;;;;;;;;;;;;;;;24.63;39.00;100541.28;2352091;75;51423;-78
2023/07/04 09:36:32;;;;;;;;;;;;;;;24.60;39.12;100550.39;2319251;74;52258;-77
2023/07/04 09:39:47;;;;;;;;;;;;;;;24.59;39.24;100536.57;2351916;74;51548;-77
2023/07/04 09:42:49;;;;;;;;;;;;;;;24.60;39.25;100533.62;2352036;74;50369;-77
2023/07/04 09:45:51;;;;;;;;;;;;;;;24.59;39.34;100532.52;2352063;75;50324;-78
2023/07/04 09:48:53;;;;;;;;;;;;;;;24.60;39.46;100538.21;2319062;75;52432;-77
2023/07/04 09:51:59;;;;;;;;;;;;;;;24.65;39.40;100554.06;2318209;75;50858;-77
2023/07/04 09:55:08;;;;;;;;;;;;;;;24.66;39.38;100544.06;2338168;75;51518;-77
2023/07/04 09:58:20;;;;;;;;;;;;;;;24.65;39.30;100546.48;2349969;75;50831;-76
2023/07/04 10:01:21;;;;;;;;;;;;;;;24.66;39.16;100548.12;2317507;75;51341;-77
2023/07/04 10:04:25;;;;;;;;;;;;;;;24.65;39.21;100550.53;2317361;75;50284;-77
2023/07/04 10:07:26;;;;;;;;;;;;;;;24.65;39.17;100558.65;2349427;75;50408;-77
2023/07/04 10:10:28;;;;;;;;;;;;;;;24.65;39.19;100564.06;2349913;75;50243;-78
2023/07/04 10:13:37;;;;;;;;;;;;;;;24.64;39.13;100559.72;2317092;75;51312;-77
2023/07/04 10:16:41;;;;;;;;;;;;;;;24.63;38.93;100554.80;2339443;75;50716;-76
2023/07/04 10:19:43;;;;;;;;;;;;;;;24.61;38.56;100557.44;2313213;74;50763;-76
2023/07/04 10:22:46;;;;;;;;;;;;;;;24.59;38.40;100551.45;2332103;76;50268;-76
2023/07/04 10:25:49;;;;;;;;;;;;;;;24.57;38.29;100560.31;2284369;76;52486;-75
2023/07/04 10:28:52;;;;;;;;;;;;;;;24.55;38.31;100546.46;2331861;76;50668;-76
2023/07/04 10:31:53;;;;;;;;;;;;;;;24.56;38.13;100564.90;2315862;76;51552;-75
2023/07/04 10:34:55;;;;;;;;;;;;;;;24.55;37.90;100550.52;2336244;76;49914;-75
2023/07/04 10:37:58;;;;;;;;;;;;;;;24.57;37.97;100552.20;2295831;76;51165;-76
2023/07/04 10:41:00;;;;;;;;;;;;;;;24.55;37.57;100553.77;2322677;76;51339;-77
2023/07/04 10:44:06;;;;;;;;;;;;;;;24.54;37.60;100563.76;2311294;76;51591;-76
2023/07/04 10:47:09;;;;;;;;;;;;;;;24.51;37.44;100556.09;2316939;76;51530;-77
2023/07/04 10:50:19;;;;;;;;;;;;;;;24.48;37.50;100545.73;2278506;77;51406;-77
2023/07/04 10:53:20;;;;;;;;;;;;;;;24.45;37.49;100556.98;2326130;76;51538;-77
2023/07/04 10:56:26;;;;;;;;;;;;;;;24.45;37.36;100554.27;2311202;76;50727;-77
2023/07/04 10:59:29;;;;;;;;;;;;;;;24.45;37.40;100554.27;2324354;76;50338;-77
2023/07/04 11:02:32;;;;;;;;;;;;;;;24.42;37.35;100557.41;2272772;77;50117;-77
2023/07/04 11:05:38;;;;;;;;;;;;;;;24.39;37.47;100565.97;2332750;76;51483;-76
2023/07/04 11:08:40;;;;;;;;;;;;;;;24.39;37.62;100555.16;2340454;76;50122;-76
2023/07/04 11:11:42;;;;;;;;;;;;;;;24.38;37.50;100564.33;2341066;76;50335;-74
2023/07/04 11:14:44;;;;;;;;;;;;;;;24.39;37.66;100575.97;2341017;76;51519;-75
2023/07/04 11:17:46;;;;;;;;;;;;;;;24.39;37.79;100563.27;2340942;76;48938;-77
2023/07/04 11:20:52;;;;;;;;;;;;;;;24.39;37.68;100566.50;2324824;74;51432;-77
2023/07/04 11:23:56;;;;;;;;;;;;;;;24.40;37.47;100564.91;2312905;76;50795;-77
2023/07/04 11:27:05;;;;;;;;;;;;;;;24.39;37.67;100571.38;2296834;76;49657;-77
2023/07/04 11:30:07;;;;;;;;;;;;;;;24.40;37.82;100572.20;2331775;75;22355;-77
2023/07/04 11:33:08;;;;;;;;;;;;;;;24.40;37.84;100569.50;2335291;76;51562;-77
2023/07/04 11:36:28;;;;;;;;;;;;;;;24.40;37.91;100570.31;2324709;76;51462;-76
2023/07/04 11:39:31;;;;;;;;;;;;;;;24.40;37.79;100568.96;2299944;75;51731;-76
2023/07/04 11:42:40;;;;;;;;;;;;;;;24.37;38.17;100574.83;2324069;75;51573;-76
2023/07/04 11:45:42;;;;;;;;;;;;;;;24.36;38.04;100580.48;2324578;75;50822;-75
2023/07/04 11:48:46;;;;;;;;;;;;;;;24.36;38.05;100577.23;2329851;74;50473;-75
2023/07/04 11:51:47;;;;;;;;;;;;;;;24.37;38.05;100574.83;2289872;76;51787;-76
2023/07/04 11:54:56;;;;;;;;;;;;;;;24.35;38.04;100574.22;2328236;76;50487;-76
2023/07/04 11:58:03;;;;;;;;;;;;;;;24.36;37.89;100569.66;2333051;76;50815;-76
2023/07/04 12:01:04;;;;;;;;;;;;;;;24.37;38.19;100582.94;2341477;76;51578;-77
2023/07/04 12:04:06;;;;;;;;;;;;;;;24.40;37.92;100577.61;2312142;76;51705;-77
2023/07/04 12:07:12;;;;;;;;;;;;;;;24.41;37.95;100573.88;2276120;77;49974;-77
2023/07/04 12:10:15;;;;;;;;;;;;;;;24.44;37.88;100570.71;2289953;77;50777;-77
2023/07/04 12:13:19;;;;;;;;;;;;;;;24.44;37.91;100564.77;2301205;77;50962;-77
2023/07/04 12:16:21;;;;;;;;;;;;;;;24.42;37.96;100570.92;2305103;76;51004;-77
2023/07/04 12:19:22;;;;;;;;;;;;;;;24.42;37.92;100567.40;2309627;75;51591;-77
2023/07/04 12:22:24;;;;;;;;;;;;;;;24.40;37.95;100562.20;2321708;75;50636;-77
2023/07/04 12:25:30;;;;;;;;;;;;;;;24.41;37.91;100570.64;2341329;75;50942;-78
2023/07/04 12:28:32;;;;;;;;;;;;;;;24.42;38.00;100576.86;2326992;75;50985;-78
2023/07/04 12:31:34;;;;;;;;;;;;;;;24.43;38.03;100566.34;2317120;75;50156;-77
2023/07/04 12:34:35;;;;;;;;;;;;;;;24.45;37.93;100569.15;2303683;76;49993;-78
2023/07/04 12:37:39;;;;;;;;;;;;;;;24.44;37.82;100579.64;2337818;74;51618;-78
2023/07/04 12:40:41;;;;;;;;;;;;;;;24.43;37.90;100586.63;2347757;75;50806;-77
2023/07/04 12:43:43;;;;;;;;;;;;;;;24.42;38.04;100576.33;2336557;76;51439;-77
2023/07/04 12:46:44;;;;;;;;;;;;;;;24.43;38.02;100574.45;2375783;73;50252;-77
2023/07/04 12:49:46;;;;;;;;;;;;;;;24.42;37.96;100578.22;2373979;74;50295;-77
2023/07/04 12:52:49;;;;;;;;;;;;;;;24.44;37.89;100581.53;2335499;74;52352;-78
2023/07/04 12:55:50;;;;;;;;;;;;;;;24.45;37.91;100579.15;2358769;75;51547;-78
2023/07/04 12:58:52;;;;;;;;;;;;;;;24.42;37.89;100576.33;2337735;75;50301;-77
2023/07/04 13:01:54;;;;;;;;;;;;;;;24.40;38.06;100570.84;2357279;75;50755;-77
2023/07/04 13:04:55;;;;;;;;;;;;;;;24.42;38.07;100568.22;2288250;76;51027;-76
2023/07/04 13:07:57;;;;;;;;;;;;;;;24.42;38.12;100570.11;2325087;76;50779;-76
2023/07/04 13:10:59;;;;;;;;;;;;;;;24.43;38.09;100572.59;2325162;75;50380;-77
2023/07/04 13:14:05;;;;;;;;;;;;;;;24.42;38.04;100558.75;2325399;76;51623;-76
2023/07/04 13:17:08;;;;;;;;;;;;;;;24.41;38.08;100559.81;2323376;76;51479;-76
2023/07/04 13:20:11;;;;;;;;;;;;;;;24.41;38.10;100566.58;2298520;76;50474;-76
2023/07/04 13:23:14;;;;;;;;;;;;;;;24.43;38.10;100578.50;2351002;74;51490;-76
2023/07/04 13:26:20;;;;;;;;;;;;;;;24.44;38.09;100570.18;2372305;75;51450;-75
2023/07/04 13:29:26;;;;;;;;;;;;;;;24.42;38.15;100573.63;2348564;75;51663;-76
2023/07/04 13:32:30;;;;;;;;;;;;;;;24.42;38.15;100585.80;2377019;75;50322;-76
2023/07/04 13:35:33;;;;;;;;;;;;;;;24.46;38.04;100571.36;2376374;75;51542;-75
2023/07/04 13:38:35;;;;;;;;;;;;;;;24.45;37.89;100584.56;2376724;75;51571;-76
2023/07/04 13:41:37;;;;;;;;;;;;;;;24.43;38.04;100581.21;2348693;75;51236;-76
2023/07/04 13:44:39;;;;;;;;;;;;;;;24.45;37.96;100576.44;2376942;75;50472;-76
2023/07/04 13:47:41;;;;;;;;;;;;;;;24.42;37.91;100575.52;2376861;75;50299;-77
2023/07/04 13:50:43;;;;;;;;;;;;;;;24.42;38.06;100571.45;2377099;75;50326;-76
2023/07/04 13:53:45;;;;;;;;;;;;;;;24.42;37.96;100580.39;2339704;75;52432;-76
2023/07/04 13:56:46;;;;;;;;;;;;;;;24.44;37.83;100589.11;2350734;74;51426;-76
2023/07/04 13:59:48;;;;;;;;;;;;;;;24.40;37.89;100589.25;2378872;74;51524;-76
2023/07/04 14:02:50;;;;;;;;;;;;;;;24.37;37.94;100584.29;2378807;75;50312;-76
2023/07/04 14:05:52;;;;;;;;;;;;;;;24.40;37.99;100590.60;2323806;75;51681;-77
2023/07/04 14:08:53;;;;;;;;;;;;;;;24.41;37.78;100598.21;2350463;75;51354;-76
2023/07/04 14:12:00;;;;;;;;;;;;;;;24.39;37.89;100598.95;2378799;74;51473;-76
2023/07/04 14:15:02;;;;;;;;;;;;;;;24.41;37.95;100600.92;2379251;75;50279;-78
2023/07/04 14:18:04;;;;;;;;;;;;;;;24.41;37.80;100594.16;2324415;75;52241;-76
2023/07/04 14:21:06;;;;;;;;;;;;;;;24.39;37.95;100590.84;2336665;75;50026;-77
2023/07/04 14:24:07;;;;;;;;;;;;;;;24.40;37.95;100593.30;2333631;75;51396;-76
2023/07/04 14:27:09;;;;;;;;;;;;;;;24.42;37.92;100588.50;2333502;75;51521;-76
2023/07/04 14:30:11;;;;;;;;;;;;;;;24.42;37.95;100584.45;2333401;75;51048;-76
2023/07/04 14:33:12;;;;;;;;;;;;;;;24.40;37.88;100586.54;2334064;75;50657;-76
2023/07/04 14:36:14;;;;;;;;;;;;;;;24.38;37.89;100588.67;2333480;75;51594;-76
2023/07/04 14:39:15;;;;;;;;;;;;;;;24.39;38.00;100586.78;2333629;75;50933;-78
2023/07/04 14:42:17;;;;;;;;;;;;;;;24.41;37.97;100594.98;2307371;75;52379;-76
2023/07/04 14:45:18;;;;;;;;;;;;;;;24.39;37.83;100586.78;2366320;75;50275;-77
2023/07/04 14:48:21;;;;;;;;;;;;;;;24.40;37.91;100596.54;2333521;75;50749;-77
2023/07/04 14:51:22;;;;;;;;;;;;;;;24.38;37.81;100584.61;2361165;73;50769;-77
2023/07/04 14:54:24;;;;;;;;;;;;;;;24.39;37.92;100586.78;2298632;76;53388;-77
2023/07/04 14:57:26;;;;;;;;;;;;;;;24.39;37.86;100584.08;2325629;75;50916;-77
2023/07/04 15:00:29;;;;;;;;;;;;;;;24.37;37.90;100595.11;2325844;75;50341;-76
2023/07/04 15:03:32;;;;;;;;;;;;;;;24.38;37.85;100591.88;2324382;75;50342;-76
2023/07/04 15:06:34;;;;;;;;;;;;;;;24.37;37.79;100589.70;2294202;76;51671;-76
2023/07/04 15:09:37;;;;;;;;;;;;;;;24.36;37.83;100586.70;2325906;76;51556;-77
2023/07/04 15:12:39;;;;;;;;;;;;;;;24.37;37.76;100587.00;2305450;75;50082;-76
2023/07/04 15:15:40;;;;;;;;;;;;;;;24.37;37.82;100589.70;2341278;75;51499;-77
2023/07/04 15:18:42;;;;;;;;;;;;;;;24.39;37.69;100580.84;2281276;76;52558;-77
2023/07/04 15:21:43;;;;;;;;;;;;;;;24.38;37.66;100592.73;2307091;76;50710;-77
2023/07/04 15:24:45;;;;;;;;;;;;;;;24.40;37.52;100591.12;2341862;76;50169;-76
2023/07/04 15:27:47;;;;;;;;;;;;;;;24.39;37.64;100579.49;2307048;76;50031;-77
2023/07/04 15:30:50;;;;;;;;;;;;;;;24.39;37.67;100588.95;2307018;76;51279;-77
2023/07/04 15:33:52;;;;;;;;;;;;;;;24.37;37.72;100588.88;2341297;75;50868;-77
2023/07/04 15:36:55;;;;;;;;;;;;;;;24.39;37.74;100586.78;2341222;75;52150;-77